sensor_id;sensor_type;location;lat;lon;timestamp;pressure;altitude;pressure_sealevel;temperature;humidity
55757;BME280;41676;44.610;44.078;2022-08-11T00:00:45;99588.72;;;23.00;94.53
55757;BME280;41676;44.610;44.078;2022-08-11T00:05:52;99584.66;;;23.08;94.46
55757;BME280;41676;44.610;44.078;2022-08-11T00:11:06;99510.09;;;22.60;95.65
55757;BME280;41676;44.610;44.078;2022-08-11T00:16:19;99549.38;;;22.88;95.68
55757;BME280;41676;44.610;44.078;2022-08-11T00:21:22;99580.59;;;23.00;93.46
55757;BME280;41676;44.610;44.078;2022-08-11T00:26:26;99532.00;;;22.63;94.08
55757;BME280;41676;44.610;44.078;2022-08-11T00:31:29;99574.59;;;22.93;94.28
55757;BME280;41676;44.610;44.078;2022-08-11T00:37:05;99579.50;;;22.96;97.02
55757;BME280;41676;44.610;44.078;2022-08-11T00:48:01;99566.75;;;22.92;97.50
55757;BME280;41676;44.610;44.078;2022-08-11T01:20:09;99570.50;;;22.91;96.51
55757;BME280;41676;44.610;44.078;2022-08-11T01:47:07;99564.00;;;22.14;95.73
55757;BME280;41676;44.610;44.078;2022-08-11T01:52:54;99595.47;;;22.25;96.15
55757;BME280;41676;44.610;44.078;2022-08-11T02:14:20;99600.91;;;22.30;97.39
55757;BME280;41676;44.610;44.078;2022-08-11T02:25:37;99613.63;;;22.29;98.35
55757;BME280;41676;44.610;44.078;2022-08-11T02:30:59;99616.91;;;22.37;97.94
55757;BME280;41676;44.610;44.078;2022-08-11T02:36:24;99534.69;;;21.90;96.51
55757;BME280;41676;44.610;44.078;2022-08-11T02:47:28;99632.22;;;22.68;97.21
55757;BME280;41676;44.610;44.078;2022-08-11T02:52:58;99631.47;;;22.93;98.74
55757;BME280;41676;44.610;44.078;2022-08-11T03:03:22;99637.78;;;23.30;93.81
55757;BME280;41676;44.610;44.078;2022-08-11T03:08:43;99584.94;;;23.27;94.66
55757;BME280;41676;44.610;44.078;2022-08-11T03:13:58;99548.94;;;23.21;91.84
55757;BME280;41676;44.610;44.078;2022-08-11T03:20:00;99637.78;;;24.17;91.26
55757;BME280;41676;44.610;44.078;2022-08-11T03:36:27;99661.41;;;26.86;75.75
55757;BME280;41676;44.610;44.078;2022-08-11T03:42:19;99649.31;;;28.01;71.19
55757;BME280;41676;44.610;44.078;2022-08-11T03:47:40;99646.03;;;28.46;67.41
55757;BME280;41676;44.610;44.078;2022-08-11T04:20:48;99649.75;;;26.81;73.03
55757;BME280;41676;44.610;44.078;2022-08-11T04:25:55;99646.63;;;26.45;73.28
55757;BME280;41676;44.610;44.078;2022-08-11T04:31:32;99651.69;;;26.56;75.87
55757;BME280;41676;44.610;44.078;2022-08-11T04:36:56;99575.50;;;27.27;71.55
55757;BME280;41676;44.610;44.078;2022-08-11T04:54:34;99652.19;;;28.65;67.66
55757;BME280;41676;44.610;44.078;2022-08-11T05:00:05;99640.38;;;29.20;64.83
55757;BME280;41676;44.610;44.078;2022-08-11T05:06:29;99637.53;;;29.70;63.26
55757;BME280;41676;44.610;44.078;2022-08-11T05:22:28;99628.56;;;28.97;64.26
55757;BME280;41676;44.610;44.078;2022-08-11T05:27:56;99615.84;;;28.78;64.65
55757;BME280;41676;44.610;44.078;2022-08-11T05:33:29;99472.66;;;28.15;64.24
55757;BME280;41676;44.610;44.078;2022-08-11T05:38:56;99617.06;;;28.72;64.62
55757;BME280;41676;44.610;44.078;2022-08-11T05:44:18;99576.75;;;28.78;63.88
55757;BME280;41676;44.610;44.078;2022-08-11T05:49:39;99611.03;;;29.34;62.50
55757;BME280;41676;44.610;44.078;2022-08-11T05:55:04;99552.94;;;29.37;61.54
55757;BME280;41676;44.610;44.078;2022-08-11T06:00:24;99542.94;;;28.51;60.78
55757;BME280;41676;44.610;44.078;2022-08-11T06:05:33;99593.56;;;29.21;60.69
55757;BME280;41676;44.610;44.078;2022-08-11T06:10:37;99573.34;;;29.31;58.72
55757;BME280;41676;44.610;44.078;2022-08-11T06:15:47;99600.09;;;29.34;58.47
55757;BME280;41676;44.610;44.078;2022-08-11T06:20:55;99544.13;;;29.40;54.56
55757;BME280;41676;44.610;44.078;2022-08-11T06:25:58;99594.34;;;30.29;53.21
55757;BME280;41676;44.610;44.078;2022-08-11T06:31:01;99605.63;;;30.85;51.70
55757;BME280;41676;44.610;44.078;2022-08-11T06:42:31;99516.09;;;30.06;50.32
55757;BME280;41676;44.610;44.078;2022-08-11T06:47:06;99576.38;;;30.14;50.27
55757;BME280;41676;44.610;44.078;2022-08-11T06:52:12;99547.00;;;29.89;50.19
55757;BME280;41676;44.610;44.078;2022-08-11T06:57:17;99537.75;;;30.16;49.39
55757;BME280;41676;44.610;44.078;2022-08-11T07:02:48;99577.97;;;30.55;48.81
55757;BME280;41676;44.610;44.078;2022-08-11T07:13:51;99620.34;;;31.41;47.53
55757;BME280;41676;44.610;44.078;2022-08-11T07:19:14;99615.00;;;31.53;48.24
55757;BME280;41676;44.610;44.078;2022-08-11T07:24:45;99551.69;;;31.50;46.81
55757;BME280;41676;44.610;44.078;2022-08-11T07:30:09;99573.66;;;32.05;46.86
55757;BME280;41676;44.610;44.078;2022-08-11T07:35:14;99500.06;;;31.90;47.09
55757;BME280;41676;44.610;44.078;2022-08-11T07:40:22;99502.13;;;31.93;45.58
55757;BME280;41676;44.610;44.078;2022-08-11T07:45:23;99520.69;;;31.96;46.19
55757;BME280;41676;44.610;44.078;2022-08-11T07:50:43;99571.59;;;32.32;46.11
55757;BME280;41676;44.610;44.078;2022-08-11T07:56:03;99565.03;;;32.16;45.02
55757;BME280;41676;44.610;44.078;2022-08-11T08:01:07;99568.13;;;32.44;44.65
55757;BME280;41676;44.610;44.078;2022-08-11T08:06:28;99524.72;;;32.58;43.84
55757;BME280;41676;44.610;44.078;2022-08-11T08:11:48;99527.03;;;33.10;43.06
55757;BME280;41676;44.610;44.078;2022-08-11T08:17:08;99544.53;;;33.27;43.26
55757;BME280;41676;44.610;44.078;2022-08-11T08:22:28;99531.50;;;33.03;42.23
55757;BME280;41676;44.610;44.078;2022-08-11T08:27:29;99515.84;;;32.94;43.09
55757;BME280;41676;44.610;44.078;2022-08-11T08:32:31;99500.00;;;33.12;42.67
55757;BME280;41676;44.610;44.078;2022-08-11T08:37:34;99521.38;;;33.40;42.25
55757;BME280;41676;44.610;44.078;2022-08-11T08:42:44;99529.25;;;33.62;41.26
55757;BME280;41676;44.610;44.078;2022-08-11T08:48:00;99509.00;;;33.34;41.85
55757;BME280;41676;44.610;44.078;2022-08-11T08:53:03;99518.00;;;33.55;41.82
55757;BME280;41676;44.610;44.078;2022-08-11T08:58:06;99494.63;;;33.28;42.32
55757;BME280;41676;44.610;44.078;2022-08-11T09:03:08;99505.78;;;33.44;40.74
55757;BME280;41676;44.610;44.078;2022-08-11T09:08:10;99503.34;;;33.18;42.80
55757;BME280;41676;44.610;44.078;2022-08-11T09:13:11;99498.97;;;33.29;42.36
55757;BME280;41676;44.610;44.078;2022-08-11T09:18:16;99505.63;;;33.61;41.51
55757;BME280;41676;44.610;44.078;2022-08-11T09:23:17;99501.22;;;33.48;41.68
55757;BME280;41676;44.610;44.078;2022-08-11T09:28:38;99483.38;;;33.09;41.33
55757;BME280;41676;44.610;44.078;2022-08-11T09:33:42;99373.56;;;32.28;42.28
55757;BME280;41676;44.610;44.078;2022-08-11T09:38:44;99422.50;;;32.56;42.81
55757;BME280;41676;44.610;44.078;2022-08-11T09:44:03;99433.25;;;33.15;42.27
55757;BME280;41676;44.610;44.078;2022-08-11T09:49:24;99477.38;;;34.01;41.63
55757;BME280;41676;44.610;44.078;2022-08-11T09:54:26;99465.66;;;34.29;41.06
55757;BME280;41676;44.610;44.078;2022-08-11T09:59:27;99477.41;;;34.14;40.46
55757;BME280;41676;44.610;44.078;2022-08-11T10:04:39;99476.69;;;33.80;41.30
55757;BME280;41676;44.610;44.078;2022-08-11T10:09:50;99482.69;;;33.70;41.11
55757;BME280;41676;44.610;44.078;2022-08-11T10:14:55;99429.06;;;33.30;41.51
55757;BME280;41676;44.610;44.078;2022-08-11T10:20:17;99458.09;;;34.01;41.45
55757;BME280;41676;44.610;44.078;2022-08-11T10:25:21;99473.59;;;33.94;41.48
55757;BME280;41676;44.610;44.078;2022-08-11T10:31:02;99452.59;;;33.77;41.24
55757;BME280;41676;44.610;44.078;2022-08-11T10:36:22;99439.09;;;33.72;41.25
55757;BME280;41676;44.610;44.078;2022-08-11T10:41:24;99387.19;;;33.25;41.73
55757;BME280;41676;44.610;44.078;2022-08-11T10:46:45;99452.13;;;33.62;42.17
55757;BME280;41676;44.610;44.078;2022-08-11T10:52:05;99436.19;;;33.68;42.28
55757;BME280;41676;44.610;44.078;2022-08-11T10:57:26;99445.34;;;33.97;41.20
55757;BME280;41676;44.610;44.078;2022-08-11T11:02:46;99439.00;;;34.33;40.59
55757;BME280;41676;44.610;44.078;2022-08-11T11:08:04;99435.63;;;34.40;40.96
55757;BME280;41676;44.610;44.078;2022-08-11T11:13:29;99359.03;;;33.80;41.29
55757;BME280;41676;44.610;44.078;2022-08-11T11:18:52;99431.22;;;33.98;41.63
55757;BME280;41676;44.610;44.078;2022-08-11T11:40:11;99433.66;;;33.88;42.23
55757;BME280;41676;44.610;44.078;2022-08-11T11:45:21;99430.78;;;33.96;41.38
55757;BME280;41676;44.610;44.078;2022-08-11T11:50:30;99433.75;;;33.91;41.63
55757;BME280;41676;44.610;44.078;2022-08-11T11:55:34;99421.94;;;34.03;42.09
55757;BME280;41676;44.610;44.078;2022-08-11T12:00:36;99422.81;;;34.19;41.68
55757;BME280;41676;44.610;44.078;2022-08-11T12:05:56;99411.03;;;34.06;41.63
55757;BME280;41676;44.610;44.078;2022-08-11T12:10:58;99414.88;;;34.30;41.55
55757;BME280;41676;44.610;44.078;2022-08-11T12:16:20;99355.53;;;33.68;42.24
55757;BME280;41676;44.610;44.078;2022-08-11T12:21:23;99391.97;;;33.89;41.98
55757;BME280;41676;44.610;44.078;2022-08-11T12:26:24;99421.47;;;34.01;41.81
55757;BME280;41676;44.610;44.078;2022-08-11T12:31:44;99424.56;;;33.99;41.19
55757;BME280;41676;44.610;44.078;2022-08-11T12:37:00;99418.69;;;34.01;41.36
55757;BME280;41676;44.610;44.078;2022-08-11T12:42:05;99405.53;;;33.94;41.18
55757;BME280;41676;44.610;44.078;2022-08-11T12:47:24;99345.91;;;33.61;40.92
55757;BME280;41676;44.610;44.078;2022-08-11T12:52:49;99417.72;;;34.05;40.57
55757;BME280;41676;44.610;44.078;2022-08-11T12:57:53;99406.88;;;34.13;39.92
55757;BME280;41676;44.610;44.078;2022-08-11T13:03:13;99403.44;;;34.16;40.14
55757;BME280;41676;44.610;44.078;2022-08-11T13:08:35;99338.75;;;33.73;39.97
55757;BME280;41676;44.610;44.078;2022-08-11T13:13:38;99392.78;;;34.14;39.84
55757;BME280;41676;44.610;44.078;2022-08-11T13:18:43;99409.16;;;34.23;40.17
55757;BME280;41676;44.610;44.078;2022-08-11T13:23:44;99391.72;;;34.19;39.66
55757;BME280;41676;44.610;44.078;2022-08-11T13:28:46;99403.59;;;34.35;39.75
55757;BME280;41676;44.610;44.078;2022-08-11T13:33:48;99379.09;;;34.18;39.77
55757;BME280;41676;44.610;44.078;2022-08-11T13:38:52;99405.72;;;34.26;39.80
55757;BME280;41676;44.610;44.078;2022-08-11T13:43:55;99403.91;;;34.18;39.74
55757;BME280;41676;44.610;44.078;2022-08-11T13:48:56;99399.31;;;34.09;39.32
55757;BME280;41676;44.610;44.078;2022-08-11T13:54:05;99347.75;;;33.57;39.58
55757;BME280;41676;44.610;44.078;2022-08-11T13:59:07;99399.00;;;33.86;39.49
55757;BME280;41676;44.610;44.078;2022-08-11T14:04:12;99390.50;;;33.79;39.09
55757;BME280;41676;44.610;44.078;2022-08-11T14:09:18;99389.59;;;33.75;38.64
55757;BME280;41676;44.610;44.078;2022-08-11T14:14:26;99390.19;;;33.56;38.04
55757;BME280;41676;44.610;44.078;2022-08-11T14:19:31;99406.94;;;33.51;38.97
55757;BME280;41676;44.610;44.078;2022-08-11T14:24:40;99405.75;;;33.40;38.65
55757;BME280;41676;44.610;44.078;2022-08-11T14:29:42;99349.56;;;33.04;38.87
55757;BME280;41676;44.610;44.078;2022-08-11T14:34:43;99398.78;;;33.30;38.90
55757;BME280;41676;44.610;44.078;2022-08-11T14:39:52;99386.69;;;33.10;39.23
55757;BME280;41676;44.610;44.078;2022-08-11T14:44:59;99325.25;;;32.61;39.79
55757;BME280;41676;44.610;44.078;2022-08-11T14:50:22;99339.56;;;32.54;39.67
55757;BME280;41676;44.610;44.078;2022-08-11T14:55:26;99419.81;;;33.02;39.93
55757;BME280;41676;44.610;44.078;2022-08-11T15:00:54;99385.53;;;32.66;39.88
55757;BME280;41676;44.610;44.078;2022-08-11T15:05:58;99354.25;;;32.37;40.39
55757;BME280;41676;44.610;44.078;2022-08-11T15:11:01;99356.84;;;32.34;40.28
55757;BME280;41676;44.610;44.078;2022-08-11T15:16:22;99371.16;;;32.27;40.64
55757;BME280;41676;44.610;44.078;2022-08-11T15:21:42;99358.16;;;32.15;41.09
55757;BME280;41676;44.610;44.078;2022-08-11T15:27:08;99407.69;;;32.27;41.64
55757;BME280;41676;44.610;44.078;2022-08-11T15:32:30;99432.69;;;32.35;41.36
55757;BME280;41676;44.610;44.078;2022-08-11T15:37:56;99379.38;;;31.85;41.48
55757;BME280;41676;44.610;44.078;2022-08-11T15:48:21;99453.34;;;32.20;41.01
55757;BME280;41676;44.610;44.078;2022-08-11T15:53:40;99462.66;;;31.98;41.63
55757;BME280;41676;44.610;44.078;2022-08-11T15:58:45;99480.81;;;31.90;41.55
55757;BME280;41676;44.610;44.078;2022-08-11T16:04:09;99474.41;;;31.77;42.18
55757;BME280;41676;44.610;44.078;2022-08-11T16:09:12;99398.13;;;31.15;42.08
55757;BME280;41676;44.610;44.078;2022-08-11T16:14:16;99429.88;;;31.25;41.82
55757;BME280;41676;44.610;44.078;2022-08-11T16:19:38;99488.63;;;31.41;41.97
55757;BME280;41676;44.610;44.078;2022-08-11T16:24:43;99456.19;;;31.17;42.15
55757;BME280;41676;44.610;44.078;2022-08-11T16:29:46;99356.81;;;30.30;42.32
55757;BME280;41676;44.610;44.078;2022-08-11T16:35:03;99484.63;;;31.04;42.68
55757;BME280;41676;44.610;44.078;2022-08-11T16:40:24;99436.91;;;30.53;43.12
55757;BME280;41676;44.610;44.078;2022-08-11T16:45:26;99472.84;;;30.68;44.24
55757;BME280;41676;44.610;44.078;2022-08-11T16:50:45;99500.59;;;30.58;44.56
55757;BME280;41676;44.610;44.078;2022-08-11T16:55:48;99508.31;;;30.56;44.67
55757;BME280;41676;44.610;44.078;2022-08-11T17:00:51;99483.47;;;30.27;45.03
55757;BME280;41676;44.610;44.078;2022-08-11T17:05:52;99519.91;;;30.36;45.51
55757;BME280;41676;44.610;44.078;2022-08-11T17:11:12;99530.69;;;30.32;46.00
55757;BME280;41676;44.610;44.078;2022-08-11T17:16:35;99468.66;;;29.79;46.04
55757;BME280;41676;44.610;44.078;2022-08-11T17:21:40;99483.34;;;29.83;46.11
55757;BME280;41676;44.610;44.078;2022-08-11T17:27:00;99535.16;;;30.19;46.06
55757;BME280;41676;44.610;44.078;2022-08-11T17:32:05;99532.34;;;29.93;46.45
55757;BME280;41676;44.610;44.078;2022-08-11T17:37:26;99542.94;;;29.86;46.85
55757;BME280;41676;44.610;44.078;2022-08-11T17:42:29;99549.81;;;29.75;47.21
55757;BME280;41676;44.610;44.078;2022-08-11T17:47:49;99515.38;;;29.51;46.91
55757;BME280;41676;44.610;44.078;2022-08-11T17:53:11;99473.16;;;29.12;47.15
55757;BME280;41676;44.610;44.078;2022-08-11T17:58:33;99530.66;;;29.44;46.76
55757;BME280;41676;44.610;44.078;2022-08-11T18:03:53;99522.50;;;29.30;46.29
55757;BME280;41676;44.610;44.078;2022-08-11T18:08:56;99485.19;;;28.89;45.94
55757;BME280;41676;44.610;44.078;2022-08-11T18:14:17;99485.00;;;28.85;45.76
55757;BME280;41676;44.610;44.078;2022-08-11T18:19:37;99562.06;;;29.24;45.43
55757;BME280;41676;44.610;44.078;2022-08-11T18:25:01;99556.19;;;29.17;44.84
55757;BME280;41676;44.610;44.078;2022-08-11T18:30:22;99545.13;;;28.99;44.63
55757;BME280;41676;44.610;44.078;2022-08-11T18:35:42;99544.09;;;28.95;44.52
55757;BME280;41676;44.610;44.078;2022-08-11T18:41:04;99535.66;;;28.83;44.05
55757;BME280;41676;44.610;44.078;2022-08-11T18:46:25;99398.25;;;27.96;44.02
55757;BME280;41676;44.610;44.078;2022-08-11T18:51:48;99534.47;;;28.75;43.68
55757;BME280;41676;44.610;44.078;2022-08-11T18:57:09;99542.44;;;28.72;43.78
55757;BME280;41676;44.610;44.078;2022-08-11T19:02:34;99482.84;;;28.23;43.80
55757;BME280;41676;44.610;44.078;2022-08-11T19:07:56;99555.22;;;28.62;43.98
55757;BME280;41676;44.610;44.078;2022-08-11T19:13:18;99542.09;;;28.51;44.37
55757;BME280;41676;44.610;44.078;2022-08-11T19:18:39;99553.97;;;28.46;44.45
55757;BME280;41676;44.610;44.078;2022-08-11T19:24:03;99493.28;;;27.94;44.74
55757;BME280;41676;44.610;44.078;2022-08-11T19:29:25;99560.44;;;28.22;44.81
55757;BME280;41676;44.610;44.078;2022-08-11T19:34:46;99574.09;;;28.22;44.75
55757;BME280;41676;44.610;44.078;2022-08-11T19:40:08;99583.28;;;28.13;45.24
55757;BME280;41676;44.610;44.078;2022-08-11T19:45:29;99561.66;;;27.89;45.50
55757;BME280;41676;44.610;44.078;2022-08-11T19:50:49;99508.38;;;27.45;45.88
55757;BME280;41676;44.610;44.078;2022-08-11T19:56:10;99554.31;;;27.70;46.28
55757;BME280;41676;44.610;44.078;2022-08-11T20:01:29;99586.16;;;27.75;46.83
55757;BME280;41676;44.610;44.078;2022-08-11T20:06:50;99578.56;;;27.72;46.94
55757;BME280;41676;44.610;44.078;2022-08-11T20:12:10;99584.81;;;27.59;47.47
55757;BME280;41676;44.610;44.078;2022-08-11T20:17:35;99589.44;;;27.58;47.86
55757;BME280;41676;44.610;44.078;2022-08-11T20:22:59;99591.34;;;27.44;48.20
55757;BME280;41676;44.610;44.078;2022-08-11T20:28:19;99601.94;;;27.45;48.28
55757;BME280;41676;44.610;44.078;2022-08-11T20:33:39;99615.69;;;27.40;48.91
55757;BME280;41676;44.610;44.078;2022-08-11T20:39:06;99607.84;;;27.34;49.17
55757;BME280;41676;44.610;44.078;2022-08-11T20:44:27;99603.09;;;27.25;49.67
55757;BME280;41676;44.610;44.078;2022-08-11T20:49:47;99520.00;;;26.66;50.06
55757;BME280;41676;44.610;44.078;2022-08-11T20:55:08;99589.88;;;26.95;50.54
55757;BME280;41676;44.610;44.078;2022-08-11T21:00:28;99577.88;;;26.77;50.93
55757;BME280;41676;44.610;44.078;2022-08-11T21:05:49;99610.72;;;26.85;51.13
55757;BME280;41676;44.610;44.078;2022-08-11T21:11:08;99606.97;;;26.81;51.78
55757;BME280;41676;44.610;44.078;2022-08-11T21:16:35;99608.41;;;26.74;52.67
55757;BME280;41676;44.610;44.078;2022-08-11T21:21:57;99539.63;;;26.20;53.00
55757;BME280;41676;44.610;44.078;2022-08-11T21:27:19;99539.81;;;26.05;53.42
55757;BME280;41676;44.610;44.078;2022-08-11T21:32:41;99620.56;;;26.38;54.25
55757;BME280;41676;44.610;44.078;2022-08-11T21:38:01;99640.75;;;26.32;54.32
55757;BME280;41676;44.610;44.078;2022-08-11T21:43:22;99617.50;;;26.21;54.69
55757;BME280;41676;44.610;44.078;2022-08-11T21:48:44;99633.75;;;26.26;55.13
55757;BME280;41676;44.610;44.078;2022-08-11T21:54:04;99563.00;;;25.73;55.58
55757;BME280;41676;44.610;44.078;2022-08-11T21:59:58;99576.84;;;25.77;55.77
55757;BME280;41676;44.610;44.078;2022-08-11T22:05:16;99669.50;;;26.19;54.71
55757;BME280;41676;44.610;44.078;2022-08-11T22:10:36;99675.25;;;26.18;55.17
55757;BME280;41676;44.610;44.078;2022-08-11T22:15:57;99675.28;;;26.13;54.79
55757;BME280;41676;44.610;44.078;2022-08-11T22:21:17;99665.81;;;26.05;54.67
55757;BME280;41676;44.610;44.078;2022-08-11T22:26:36;99633.16;;;25.76;54.92
55757;BME280;41676;44.610;44.078;2022-08-11T22:31:56;99651.66;;;25.74;55.17
55757;BME280;41676;44.610;44.078;2022-08-11T22:37:16;99676.38;;;25.83;55.59
55757;BME280;41676;44.610;44.078;2022-08-11T22:42:38;99614.16;;;25.37;55.87
55757;BME280;41676;44.610;44.078;2022-08-11T22:47:59;99578.28;;;24.95;56.12
55757;BME280;41676;44.610;44.078;2022-08-11T22:53:20;99723.75;;;25.77;56.31
55757;BME280;41676;44.610;44.078;2022-08-11T22:58:40;99717.03;;;25.64;56.60
55757;BME280;41676;44.610;44.078;2022-08-11T23:04:00;99646.94;;;25.11;56.92
55757;BME280;41676;44.610;44.078;2022-08-11T23:09:22;99721.47;;;25.49;57.61
55757;BME280;41676;44.610;44.078;2022-08-11T23:14:42;99629.13;;;24.90;57.12
55757;BME280;41676;44.610;44.078;2022-08-11T23:20:02;99650.78;;;25.05;57.62
55757;BME280;41676;44.610;44.078;2022-08-11T23:25:23;99722.09;;;25.36;57.39
55757;BME280;41676;44.610;44.078;2022-08-11T23:30:43;99736.47;;;25.42;57.83
55757;BME280;41676;44.610;44.078;2022-08-11T23:36:03;99738.38;;;25.41;57.70
55757;BME280;41676;44.610;44.078;2022-08-11T23:41:22;99727.88;;;25.24;57.90
55757;BME280;41676;44.610;44.078;2022-08-11T23:46:42;99752.78;;;25.42;58.43
55757;BME280;41676;44.610;44.078;2022-08-11T23:52:03;99758.22;;;25.42;58.71
55757;BME280;41676;44.610;44.078;2022-08-11T23:57:23;99708.38;;;25.07;58.92
